sensor_id;sensor_type;location;lat;lon;timestamp;P1;durP1;ratioP1;P2;durP2;ratioP2
60472;SDS011;46318;52.716;6.444;2024-03-02T00:00:01;6.32;;;5.70;;
60472;SDS011;46318;52.716;6.444;2024-03-02T00:02:42;5.70;;;5.20;;
60472;SDS011;46318;52.716;6.444;2024-03-02T00:05:13;5.25;;;4.85;;
60472;SDS011;46318;52.716;6.444;2024-03-02T00:07:54;6.07;;;5.50;;
60472;SDS011;46318;52.716;6.444;2024-03-02T00:10:23;6.72;;;6.13;;
60472;SDS011;46318;52.716;6.444;2024-03-02T00:12:55;5.90;;;5.30;;
60472;SDS011;46318;52.716;6.444;2024-03-02T00:18:16;6.38;;;5.78;;
60472;SDS011;46318;52.716;6.444;2024-03-02T00:20:55;7.57;;;5.28;;
60472;SDS011;46318;52.716;6.444;2024-03-02T00:23:23;5.85;;;5.25;;
60472;SDS011;46318;52.716;6.444;2024-03-02T00:25:53;6.00;;;5.35;;
60472;SDS011;46318;52.716;6.444;2024-03-02T00:28:21;5.65;;;5.18;;
60472;SDS011;46318;52.716;6.444;2024-03-02T00:33:42;4.90;;;4.40;;
60472;SDS011;46318;52.716;6.444;2024-03-02T00:36:09;5.55;;;5.05;;
60472;SDS011;46318;52.716;6.444;2024-03-02T00:38:46;4.70;;;4.28;;
60472;SDS011;46318;52.716;6.444;2024-03-02T00:41:24;4.65;;;4.25;;
60472;SDS011;46318;52.716;6.444;2024-03-02T00:43:56;4.63;;;4.22;;
60472;SDS011;46318;52.716;6.444;2024-03-02T00:46:34;4.80;;;4.40;;
60472;SDS011;46318;52.716;6.444;2024-03-02T00:49:01;4.70;;;4.20;;
60472;SDS011;46318;52.716;6.444;2024-03-02T00:51:47;5.72;;;4.68;;
60472;SDS011;46318;52.716;6.444;2024-03-02T00:54:22;5.07;;;4.57;;
60472;SDS011;46318;52.716;6.444;2024-03-02T00:56:51;4.68;;;4.28;;
60472;SDS011;46318;52.716;6.444;2024-03-02T00:59:20;4.47;;;4.10;;
60472;SDS011;46318;52.716;6.444;2024-03-02T01:01:47;6.03;;;4.82;;
60472;SDS011;46318;52.716;6.444;2024-03-02T01:04:17;5.27;;;4.77;;
60472;SDS011;46318;52.716;6.444;2024-03-02T01:06:43;5.20;;;4.70;;
60472;SDS011;46318;52.716;6.444;2024-03-02T01:09:09;6.30;;;4.50;;
60472;SDS011;46318;52.716;6.444;2024-03-02T01:11:34;5.55;;;5.05;;
60472;SDS011;46318;52.716;6.444;2024-03-02T01:14:00;5.30;;;4.82;;
60472;SDS011;46318;52.716;6.444;2024-03-02T01:16:26;6.63;;;5.80;;
60472;SDS011;46318;52.716;6.444;2024-03-02T01:18:52;6.72;;;5.38;;
60472;SDS011;46318;52.716;6.444;2024-03-02T01:21:18;5.43;;;4.93;;
60472;SDS011;46318;52.716;6.444;2024-03-02T01:23:43;5.95;;;5.30;;
60472;SDS011;46318;52.716;6.444;2024-03-02T01:26:09;5.95;;;5.35;;
60472;SDS011;46318;52.716;6.444;2024-03-02T01:28:35;5.53;;;5.03;;
60472;SDS011;46318;52.716;6.444;2024-03-02T01:31:01;5.65;;;5.07;;
60472;SDS011;46318;52.716;6.444;2024-03-02T01:33:27;5.40;;;4.85;;
60472;SDS011;46318;52.716;6.444;2024-03-02T01:35:53;5.88;;;5.05;;
60472;SDS011;46318;52.716;6.444;2024-03-02T01:38:18;5.78;;;4.78;;
60472;SDS011;46318;52.716;6.444;2024-03-02T01:40:45;4.32;;;3.92;;
60472;SDS011;46318;52.716;6.444;2024-03-02T01:43:11;4.07;;;3.67;;
60472;SDS011;46318;52.716;6.444;2024-03-02T01:45:37;4.60;;;4.20;;
60472;SDS011;46318;52.716;6.444;2024-03-02T01:48:06;4.35;;;3.83;;
60472;SDS011;46318;52.716;6.444;2024-03-02T01:50:33;4.55;;;4.15;;
60472;SDS011;46318;52.716;6.444;2024-03-02T01:52:59;4.20;;;3.90;;
60472;SDS011;46318;52.716;6.444;2024-03-02T01:55:27;4.85;;;4.38;;
60472;SDS011;46318;52.716;6.444;2024-03-02T01:57:55;5.25;;;4.25;;
60472;SDS011;46318;52.716;6.444;2024-03-02T02:00:21;4.35;;;3.95;;
60472;SDS011;46318;52.716;6.444;2024-03-02T02:02:49;4.90;;;4.50;;
60472;SDS011;46318;52.716;6.444;2024-03-02T02:05:15;4.45;;;4.05;;
60472;SDS011;46318;52.716;6.444;2024-03-02T02:07:42;3.83;;;3.53;;
60472;SDS011;46318;52.716;6.444;2024-03-02T02:10:09;3.70;;;3.40;;
60472;SDS011;46318;52.716;6.444;2024-03-02T02:12:38;4.05;;;3.72;;
60472;SDS011;46318;52.716;6.444;2024-03-02T02:15:04;4.22;;;3.47;;
60472;SDS011;46318;52.716;6.444;2024-03-02T02:17:51;4.18;;;3.65;;
60472;SDS011;46318;52.716;6.444;2024-03-02T02:20:16;3.83;;;3.53;;
60472;SDS011;46318;52.716;6.444;2024-03-02T02:23:05;3.72;;;3.42;;
60472;SDS011;46318;52.716;6.444;2024-03-02T02:25:35;5.20;;;3.92;;
60472;SDS011;46318;52.716;6.444;2024-03-02T02:28:01;3.83;;;3.53;;
60472;SDS011;46318;52.716;6.444;2024-03-02T02:30:29;4.55;;;3.97;;
60472;SDS011;46318;52.716;6.444;2024-03-02T02:32:56;4.00;;;3.60;;
60472;SDS011;46318;52.716;6.444;2024-03-02T02:35:22;3.40;;;3.10;;
60472;SDS011;46318;52.716;6.444;2024-03-02T02:37:52;4.07;;;3.45;;
60472;SDS011;46318;52.716;6.444;2024-03-02T02:40:19;4.22;;;3.72;;
60472;SDS011;46318;52.716;6.444;2024-03-02T02:42:45;4.38;;;3.97;;
60472;SDS011;46318;52.716;6.444;2024-03-02T02:45:11;3.83;;;3.53;;
60472;SDS011;46318;52.716;6.444;2024-03-02T02:47:39;3.60;;;3.33;;
60472;SDS011;46318;52.716;6.444;2024-03-02T02:50:08;4.22;;;3.85;;
60472;SDS011;46318;52.716;6.444;2024-03-02T02:52:37;3.90;;;3.50;;
60472;SDS011;46318;52.716;6.444;2024-03-02T02:55:06;3.85;;;3.60;;
60472;SDS011;46318;52.716;6.444;2024-03-02T02:57:34;4.13;;;3.72;;
60472;SDS011;46318;52.716;6.444;2024-03-02T03:00:03;4.35;;;4.00;;
60472;SDS011;46318;52.716;6.444;2024-03-02T03:02:38;4.15;;;3.75;;
60472;SDS011;46318;52.716;6.444;2024-03-02T03:05:11;4.22;;;3.83;;
60472;SDS011;46318;52.716;6.444;2024-03-02T03:10:07;4.25;;;3.85;;
60472;SDS011;46318;52.716;6.444;2024-03-02T03:12:33;4.10;;;3.70;;
60472;SDS011;46318;52.716;6.444;2024-03-02T03:15:00;4.13;;;3.72;;
60472;SDS011;46318;52.716;6.444;2024-03-02T03:17:26;4.20;;;3.80;;
60472;SDS011;46318;52.716;6.444;2024-03-02T03:19:52;4.82;;;4.32;;
60472;SDS011;46318;52.716;6.444;2024-03-02T03:22:18;4.60;;;3.92;;
60472;SDS011;46318;52.716;6.444;2024-03-02T03:24:44;4.18;;;3.78;;
60472;SDS011;46318;52.716;6.444;2024-03-02T03:27:10;4.45;;;4.05;;
60472;SDS011;46318;52.716;6.444;2024-03-02T03:29:39;4.18;;;3.80;;
60472;SDS011;46318;52.716;6.444;2024-03-02T03:32:05;4.07;;;3.78;;
60472;SDS011;46318;52.716;6.444;2024-03-02T03:34:35;6.78;;;4.20;;
60472;SDS011;46318;52.716;6.444;2024-03-02T03:37:01;3.75;;;3.45;;
60472;SDS011;46318;52.716;6.444;2024-03-02T03:39:27;3.97;;;3.67;;
60472;SDS011;46318;52.716;6.444;2024-03-02T03:41:54;4.07;;;3.78;;
60472;SDS011;46318;52.716;6.444;2024-03-02T03:44:19;4.10;;;3.70;;
60472;SDS011;46318;52.716;6.444;2024-03-02T03:46:45;4.35;;;3.80;;
60472;SDS011;46318;52.716;6.444;2024-03-02T03:49:11;4.15;;;3.83;;
60472;SDS011;46318;52.716;6.444;2024-03-02T03:51:37;4.93;;;4.20;;
60472;SDS011;46318;52.716;6.444;2024-03-02T03:54:03;4.63;;;4.03;;
60472;SDS011;46318;52.716;6.444;2024-03-02T03:56:28;4.35;;;3.70;;
60472;SDS011;46318;52.716;6.444;2024-03-02T03:58:54;3.83;;;3.53;;
60472;SDS011;46318;52.716;6.444;2024-03-02T04:01:20;5.53;;;4.00;;
60472;SDS011;46318;52.716;6.444;2024-03-02T04:03:47;4.05;;;3.65;;
60472;SDS011;46318;52.716;6.444;2024-03-02T04:06:13;4.22;;;3.53;;
60472;SDS011;46318;52.716;6.444;2024-03-02T04:08:41;4.10;;;3.70;;
60472;SDS011;46318;52.716;6.444;2024-03-02T04:11:11;4.65;;;4.00;;
60472;SDS011;46318;52.716;6.444;2024-03-02T04:13:37;4.35;;;3.78;;
60472;SDS011;46318;52.716;6.444;2024-03-02T04:16:03;3.75;;;3.35;;
60472;SDS011;46318;52.716;6.444;2024-03-02T04:18:30;4.10;;;3.80;;
60472;SDS011;46318;52.716;6.444;2024-03-02T04:20:57;4.70;;;3.90;;
60472;SDS011;46318;52.716;6.444;2024-03-02T04:23:24;4.30;;;3.90;;
60472;SDS011;46318;52.716;6.444;2024-03-02T04:25:51;4.13;;;3.75;;
60472;SDS011;46318;52.716;6.444;2024-03-02T04:28:17;4.70;;;4.15;;
60472;SDS011;46318;52.716;6.444;2024-03-02T04:30:43;6.10;;;4.50;;
60472;SDS011;46318;52.716;6.444;2024-03-02T04:33:08;4.18;;;3.80;;
60472;SDS011;46318;52.716;6.444;2024-03-02T04:35:38;4.30;;;3.90;;
60472;SDS011;46318;52.716;6.444;2024-03-02T04:38:04;4.47;;;4.10;;
60472;SDS011;46318;52.716;6.444;2024-03-02T04:40:30;3.97;;;3.60;;
60472;SDS011;46318;52.716;6.444;2024-03-02T04:42:57;4.90;;;4.20;;
60472;SDS011;46318;52.716;6.444;2024-03-02T04:45:24;4.32;;;3.92;;
60472;SDS011;46318;52.716;6.444;2024-03-02T04:47:50;4.22;;;3.53;;
60472;SDS011;46318;52.716;6.444;2024-03-02T04:50:15;4.28;;;3.80;;
60472;SDS011;46318;52.716;6.444;2024-03-02T04:52:41;4.55;;;4.05;;
60472;SDS011;46318;52.716;6.444;2024-03-02T04:55:07;4.25;;;3.85;;
60472;SDS011;46318;52.716;6.444;2024-03-02T04:57:56;4.78;;;4.25;;
60472;SDS011;46318;52.716;6.444;2024-03-02T05:00:22;6.65;;;4.43;;
60472;SDS011;46318;52.716;6.444;2024-03-02T05:02:48;3.97;;;3.67;;
60472;SDS011;46318;52.716;6.444;2024-03-02T05:05:13;4.40;;;3.95;;
60472;SDS011;46318;52.716;6.444;2024-03-02T05:07:42;4.05;;;3.63;;
60472;SDS011;46318;52.716;6.444;2024-03-02T05:10:09;3.90;;;3.60;;
60472;SDS011;46318;52.716;6.444;2024-03-02T05:12:36;5.03;;;3.88;;
60472;SDS011;46318;52.716;6.444;2024-03-02T05:15:08;3.72;;;3.42;;
60472;SDS011;46318;52.716;6.444;2024-03-02T05:17:41;5.18;;;4.05;;
60472;SDS011;46318;52.716;6.444;2024-03-02T05:20:10;3.50;;;3.00;;
60472;SDS011;46318;52.716;6.444;2024-03-02T05:22:37;4.03;;;3.20;;
60472;SDS011;46318;52.716;6.444;2024-03-02T05:25:03;3.65;;;3.08;;
60472;SDS011;46318;52.716;6.444;2024-03-02T05:27:30;3.42;;;2.95;;
60472;SDS011;46318;52.716;6.444;2024-03-02T05:29:57;3.08;;;2.78;;
60472;SDS011;46318;52.716;6.444;2024-03-02T05:32:24;3.05;;;2.72;;
60472;SDS011;46318;52.716;6.444;2024-03-02T05:34:50;2.90;;;2.70;;
60472;SDS011;46318;52.716;6.444;2024-03-02T05:37:16;4.70;;;2.53;;
60472;SDS011;46318;52.716;6.444;2024-03-02T05:39:42;2.60;;;2.40;;
60472;SDS011;46318;52.716;6.444;2024-03-02T05:42:09;2.42;;;2.22;;
60472;SDS011;46318;52.716;6.444;2024-03-02T05:44:35;2.75;;;1.85;;
60472;SDS011;46318;52.716;6.444;2024-03-02T05:47:02;2.35;;;1.73;;
60472;SDS011;46318;52.716;6.444;2024-03-02T05:49:28;2.30;;;1.40;;
60472;SDS011;46318;52.716;6.444;2024-03-02T05:51:54;1.00;;;1.00;;
60472;SDS011;46318;52.716;6.444;2024-03-02T05:54:20;1.10;;;1.00;;
60472;SDS011;46318;52.716;6.444;2024-03-02T05:56:47;1.48;;;0.90;;
60472;SDS011;46318;52.716;6.444;2024-03-02T05:59:12;1.25;;;0.95;;
60472;SDS011;46318;52.716;6.444;2024-03-02T06:01:39;0.80;;;0.80;;
60472;SDS011;46318;52.716;6.444;2024-03-02T06:04:05;0.93;;;0.90;;
60472;SDS011;46318;52.716;6.444;2024-03-02T06:06:31;1.30;;;1.00;;
60472;SDS011;46318;52.716;6.444;2024-03-02T06:09:02;1.17;;;0.70;;
60472;SDS011;46318;52.716;6.444;2024-03-02T06:11:36;0.75;;;0.68;;
60472;SDS011;46318;52.716;6.444;2024-03-02T06:14:03;1.10;;;0.65;;
60472;SDS011;46318;52.716;6.444;2024-03-02T06:16:33;1.48;;;0.77;;
60472;SDS011;46318;52.716;6.444;2024-03-02T06:18:59;0.60;;;0.60;;
60472;SDS011;46318;52.716;6.444;2024-03-02T06:21:26;2.55;;;0.80;;
60472;SDS011;46318;52.716;6.444;2024-03-02T06:23:52;2.13;;;0.80;;
60472;SDS011;46318;52.716;6.444;2024-03-02T06:26:19;0.60;;;0.60;;
60472;SDS011;46318;52.716;6.444;2024-03-02T06:28:47;0.77;;;0.70;;
60472;SDS011;46318;52.716;6.444;2024-03-02T06:31:13;0.70;;;0.70;;
60472;SDS011;46318;52.716;6.444;2024-03-02T06:33:39;1.30;;;0.80;;
60472;SDS011;46318;52.716;6.444;2024-03-02T06:36:06;1.98;;;0.90;;
60472;SDS011;46318;52.716;6.444;2024-03-02T06:38:34;1.00;;;0.90;;
60472;SDS011;46318;52.716;6.444;2024-03-02T06:41:00;1.25;;;0.65;;
60472;SDS011;46318;52.716;6.444;2024-03-02T06:43:26;1.13;;;0.73;;
60472;SDS011;46318;52.716;6.444;2024-03-02T06:45:52;1.35;;;0.68;;
60472;SDS011;46318;52.716;6.444;2024-03-02T06:48:18;1.63;;;0.70;;
60472;SDS011;46318;52.716;6.444;2024-03-02T06:50:50;0.90;;;0.70;;
60472;SDS011;46318;52.716;6.444;2024-03-02T06:53:17;0.85;;;0.60;;
60472;SDS011;46318;52.716;6.444;2024-03-02T06:55:44;1.60;;;0.77;;
60472;SDS011;46318;52.716;6.444;2024-03-02T06:58:14;1.85;;;0.90;;
60472;SDS011;46318;52.716;6.444;2024-03-02T07:00:42;0.65;;;0.65;;
60472;SDS011;46318;52.716;6.444;2024-03-02T07:03:11;2.45;;;0.95;;
60472;SDS011;46318;52.716;6.444;2024-03-02T07:05:37;0.55;;;0.55;;
60472;SDS011;46318;52.716;6.444;2024-03-02T07:08:03;3.22;;;0.98;;
60472;SDS011;46318;52.716;6.444;2024-03-02T07:10:30;1.30;;;1.00;;
60472;SDS011;46318;52.716;6.444;2024-03-02T07:12:56;1.67;;;0.77;;
60472;SDS011;46318;52.716;6.444;2024-03-02T07:15:21;1.80;;;0.90;;
60472;SDS011;46318;52.716;6.444;2024-03-02T07:18:04;1.38;;;0.98;;
60472;SDS011;46318;52.716;6.444;2024-03-02T07:20:30;1.23;;;1.00;;
60472;SDS011;46318;52.716;6.444;2024-03-02T07:22:55;1.58;;;1.20;;
60472;SDS011;46318;52.716;6.444;2024-03-02T07:25:21;1.30;;;0.90;;
60472;SDS011;46318;52.716;6.444;2024-03-02T07:27:47;1.85;;;1.13;;
60472;SDS011;46318;52.716;6.444;2024-03-02T07:30:13;1.33;;;1.10;;
60472;SDS011;46318;52.716;6.444;2024-03-02T07:32:41;1.27;;;0.90;;
60472;SDS011;46318;52.716;6.444;2024-03-02T07:35:11;1.35;;;0.93;;
60472;SDS011;46318;52.716;6.444;2024-03-02T07:37:38;0.80;;;0.80;;
60472;SDS011;46318;52.716;6.444;2024-03-02T07:40:04;1.75;;;0.80;;
60472;SDS011;46318;52.716;6.444;2024-03-02T07:42:34;1.40;;;0.90;;
60472;SDS011;46318;52.716;6.444;2024-03-02T07:45:00;1.17;;;0.80;;
60472;SDS011;46318;52.716;6.444;2024-03-02T07:47:26;1.17;;;1.05;;
60472;SDS011;46318;52.716;6.444;2024-03-02T07:49:51;2.15;;;1.02;;
60472;SDS011;46318;52.716;6.444;2024-03-02T07:52:17;1.58;;;0.80;;
60472;SDS011;46318;52.716;6.444;2024-03-02T07:54:46;1.27;;;1.00;;
60472;SDS011;46318;52.716;6.444;2024-03-02T07:57:12;1.88;;;0.82;;
60472;SDS011;46318;52.716;6.444;2024-03-02T07:59:38;1.45;;;0.85;;
60472;SDS011;46318;52.716;6.444;2024-03-02T08:02:03;0.98;;;0.80;;
60472;SDS011;46318;52.716;6.444;2024-03-02T08:04:29;1.00;;;0.90;;
60472;SDS011;46318;52.716;6.444;2024-03-02T08:06:55;1.17;;;0.88;;
60472;SDS011;46318;52.716;6.444;2024-03-02T08:09:21;1.25;;;0.70;;
60472;SDS011;46318;52.716;6.444;2024-03-02T08:11:47;2.13;;;0.90;;
60472;SDS011;46318;52.716;6.444;2024-03-02T08:14:13;1.35;;;1.02;;
60472;SDS011;46318;52.716;6.444;2024-03-02T08:16:38;2.35;;;1.13;;
60472;SDS011;46318;52.716;6.444;2024-03-02T08:19:05;1.42;;;0.90;;
60472;SDS011;46318;52.716;6.444;2024-03-02T08:21:31;1.55;;;1.05;;
60472;SDS011;46318;52.716;6.444;2024-03-02T08:24:00;2.00;;;1.00;;
60472;SDS011;46318;52.716;6.444;2024-03-02T08:26:27;13.85;;;11.27;;
60472;SDS011;46318;52.716;6.444;2024-03-02T08:28:57;2.30;;;2.08;;
60472;SDS011;46318;52.716;6.444;2024-03-02T08:31:24;1.77;;;1.20;;
60472;SDS011;46318;52.716;6.444;2024-03-02T08:33:50;2.00;;;1.00;;
60472;SDS011;46318;52.716;6.444;2024-03-02T08:36:16;1.13;;;1.00;;
60472;SDS011;46318;52.716;6.444;2024-03-02T08:38:42;2.42;;;0.90;;
60472;SDS011;46318;52.716;6.444;2024-03-02T08:41:09;1.55;;;0.80;;
60472;SDS011;46318;52.716;6.444;2024-03-02T08:43:35;2.55;;;1.00;;
60472;SDS011;46318;52.716;6.444;2024-03-02T08:46:01;0.90;;;0.90;;
60472;SDS011;46318;52.716;6.444;2024-03-02T08:48:26;1.25;;;0.85;;
60472;SDS011;46318;52.716;6.444;2024-03-02T08:50:52;2.90;;;0.80;;
60472;SDS011;46318;52.716;6.444;2024-03-02T08:53:18;1.63;;;0.98;;
60472;SDS011;46318;52.716;6.444;2024-03-02T08:55:47;1.02;;;0.80;;
60472;SDS011;46318;52.716;6.444;2024-03-02T08:58:13;1.35;;;0.88;;
60472;SDS011;46318;52.716;6.444;2024-03-02T09:00:39;2.40;;;0.88;;
60472;SDS011;46318;52.716;6.444;2024-03-02T09:03:05;1.10;;;0.82;;
60472;SDS011;46318;52.716;6.444;2024-03-02T09:05:31;1.48;;;0.90;;
60472;SDS011;46318;52.716;6.444;2024-03-02T09:07:58;0.75;;;0.73;;
60472;SDS011;46318;52.716;6.444;2024-03-02T09:10:24;1.92;;;1.10;;
60472;SDS011;46318;52.716;6.444;2024-03-02T09:12:50;1.45;;;0.93;;
60472;SDS011;46318;52.716;6.444;2024-03-02T09:15:15;1.73;;;0.85;;
60472;SDS011;46318;52.716;6.444;2024-03-02T09:17:42;1.67;;;0.88;;
60472;SDS011;46318;52.716;6.444;2024-03-02T09:20:08;3.22;;;1.25;;
60472;SDS011;46318;52.716;6.444;2024-03-02T09:22:35;3.63;;;1.30;;
60472;SDS011;46318;52.716;6.444;2024-03-02T09:25:01;1.52;;;0.95;;
60472;SDS011;46318;52.716;6.444;2024-03-02T09:27:26;1.42;;;1.25;;
60472;SDS011;46318;52.716;6.444;2024-03-02T09:29:52;4.55;;;2.35;;
60472;SDS011;46318;52.716;6.444;2024-03-02T09:32:21;2.05;;;1.10;;
60472;SDS011;46318;52.716;6.444;2024-03-02T09:34:46;2.60;;;1.73;;
60472;SDS011;46318;52.716;6.444;2024-03-02T09:37:13;3.28;;;1.30;;
60472;SDS011;46318;52.716;6.444;2024-03-02T09:39:39;2.22;;;1.27;;
60472;SDS011;46318;52.716;6.444;2024-03-02T09:42:09;3.72;;;1.58;;
60472;SDS011;46318;52.716;6.444;2024-03-02T09:44:34;2.60;;;1.00;;
60472;SDS011;46318;52.716;6.444;2024-03-02T09:47:00;1.10;;;0.80;;
60472;SDS011;46318;52.716;6.444;2024-03-02T09:49:26;2.72;;;1.05;;
60472;SDS011;46318;52.716;6.444;2024-03-02T09:51:52;2.05;;;1.35;;
60472;SDS011;46318;52.716;6.444;2024-03-02T09:54:18;1.75;;;1.10;;
60472;SDS011;46318;52.716;6.444;2024-03-02T09:56:44;2.08;;;0.95;;
60472;SDS011;46318;52.716;6.444;2024-03-02T09:59:10;3.00;;;1.30;;
60472;SDS011;46318;52.716;6.444;2024-03-02T10:01:38;2.25;;;1.20;;
60472;SDS011;46318;52.716;6.444;2024-03-02T10:04:04;2.05;;;1.15;;
60472;SDS011;46318;52.716;6.444;2024-03-02T10:06:30;2.80;;;1.00;;
60472;SDS011;46318;52.716;6.444;2024-03-02T10:08:56;2.17;;;0.90;;
60472;SDS011;46318;52.716;6.444;2024-03-02T10:16:41;2.13;;;1.80;;
60472;SDS011;46318;52.716;6.444;2024-03-02T10:21:49;1.75;;;0.82;;
60472;SDS011;46318;52.716;6.444;2024-03-02T10:24:17;2.15;;;1.02;;
60472;SDS011;46318;52.716;6.444;2024-03-02T10:26:44;1.65;;;0.95;;
60472;SDS011;46318;52.716;6.444;2024-03-02T10:29:10;2.58;;;1.30;;
60472;SDS011;46318;52.716;6.444;2024-03-02T10:31:42;2.03;;;1.05;;
60472;SDS011;46318;52.716;6.444;2024-03-02T10:34:11;3.75;;;2.20;;
60472;SDS011;46318;52.716;6.444;2024-03-02T10:36:40;1.50;;;0.93;;
60472;SDS011;46318;52.716;6.444;2024-03-02T10:39:08;3.17;;;0.90;;
60472;SDS011;46318;52.716;6.444;2024-03-02T10:41:35;2.63;;;1.20;;
60472;SDS011;46318;52.716;6.444;2024-03-02T10:44:03;1.92;;;1.10;;
60472;SDS011;46318;52.716;6.444;2024-03-02T10:46:31;2.10;;;0.90;;
60472;SDS011;46318;52.716;6.444;2024-03-02T10:48:59;4.18;;;1.05;;
60472;SDS011;46318;52.716;6.444;2024-03-02T10:51:28;3.30;;;0.95;;
60472;SDS011;46318;52.716;6.444;2024-03-02T10:54:00;3.85;;;1.15;;
60472;SDS011;46318;52.716;6.444;2024-03-02T10:56:28;1.75;;;1.00;;
60472;SDS011;46318;52.716;6.444;2024-03-02T10:59:16;3.63;;;1.80;;
60472;SDS011;46318;52.716;6.444;2024-03-02T11:02:04;3.10;;;1.98;;
60472;SDS011;46318;52.716;6.444;2024-03-02T11:04:33;2.08;;;1.02;;
60472;SDS011;46318;52.716;6.444;2024-03-02T11:07:07;4.15;;;1.50;;
60472;SDS011;46318;52.716;6.444;2024-03-02T11:09:37;3.80;;;1.10;;
60472;SDS011;46318;52.716;6.444;2024-03-02T11:17:17;5.22;;;2.40;;
60472;SDS011;46318;52.716;6.444;2024-03-02T11:19:44;3.13;;;1.30;;
60472;SDS011;46318;52.716;6.444;2024-03-02T11:22:10;2.30;;;1.40;;
60472;SDS011;46318;52.716;6.444;2024-03-02T11:24:37;2.10;;;0.90;;
60472;SDS011;46318;52.716;6.444;2024-03-02T11:27:03;1.70;;;1.10;;
60472;SDS011;46318;52.716;6.444;2024-03-02T11:34:39;1.70;;;1.00;;
60472;SDS011;46318;52.716;6.444;2024-03-02T11:37:15;2.15;;;1.00;;
60472;SDS011;46318;52.716;6.444;2024-03-02T11:39:50;7.60;;;5.60;;
60472;SDS011;46318;52.716;6.444;2024-03-02T11:42:19;4.82;;;2.53;;
60472;SDS011;46318;52.716;6.444;2024-03-02T11:44:46;1.73;;;1.02;;
60472;SDS011;46318;52.716;6.444;2024-03-02T11:47:17;1.27;;;1.00;;
60472;SDS011;46318;52.716;6.444;2024-03-02T11:49:49;3.28;;;1.73;;
60472;SDS011;46318;52.716;6.444;2024-03-02T11:52:19;3.22;;;1.77;;
60472;SDS011;46318;52.716;6.444;2024-03-02T11:54:47;2.33;;;1.17;;
60472;SDS011;46318;52.716;6.444;2024-03-02T11:57:16;2.28;;;1.25;;
60472;SDS011;46318;52.716;6.444;2024-03-02T11:59:49;2.72;;;1.10;;
60472;SDS011;46318;52.716;6.444;2024-03-02T12:02:16;2.33;;;1.30;;
60472;SDS011;46318;52.716;6.444;2024-03-02T12:04:44;1.92;;;1.25;;
60472;SDS011;46318;52.716;6.444;2024-03-02T12:07:11;1.75;;;1.20;;
60472;SDS011;46318;52.716;6.444;2024-03-02T12:09:40;2.05;;;1.13;;
60472;SDS011;46318;52.716;6.444;2024-03-02T12:12:09;3.10;;;1.23;;
60472;SDS011;46318;52.716;6.444;2024-03-02T12:14:38;2.63;;;1.35;;
60472;SDS011;46318;52.716;6.444;2024-03-02T12:17:04;2.85;;;1.52;;
60472;SDS011;46318;52.716;6.444;2024-03-02T12:19:31;2.13;;;1.30;;
60472;SDS011;46318;52.716;6.444;2024-03-02T12:21:58;1.63;;;1.52;;
60472;SDS011;46318;52.716;6.444;2024-03-02T12:24:29;2.25;;;1.40;;
60472;SDS011;46318;52.716;6.444;2024-03-02T12:26:55;2.67;;;1.77;;
60472;SDS011;46318;52.716;6.444;2024-03-02T12:29:22;3.58;;;2.22;;
60472;SDS011;46318;52.716;6.444;2024-03-02T12:31:49;2.50;;;2.20;;
60472;SDS011;46318;52.716;6.444;2024-03-02T12:34:17;3.28;;;2.40;;
60472;SDS011;46318;52.716;6.444;2024-03-02T12:36:45;3.08;;;2.72;;
60472;SDS011;46318;52.716;6.444;2024-03-02T12:39:14;2.60;;;2.40;;
60472;SDS011;46318;52.716;6.444;2024-03-02T12:41:41;2.63;;;2.13;;
60472;SDS011;46318;52.716;6.444;2024-03-02T12:44:07;4.55;;;2.10;;
60472;SDS011;46318;52.716;6.444;2024-03-02T12:46:33;5.57;;;4.97;;
60472;SDS011;46318;52.716;6.444;2024-03-02T12:49:11;4.75;;;3.25;;
60472;SDS011;46318;52.716;6.444;2024-03-02T12:51:39;4.20;;;3.22;;
60472;SDS011;46318;52.716;6.444;2024-03-02T12:54:11;5.22;;;4.72;;
60472;SDS011;46318;52.716;6.444;2024-03-02T12:59:04;3.40;;;3.05;;
60472;SDS011;46318;52.716;6.444;2024-03-02T13:01:53;5.43;;;4.38;;
60472;SDS011;46318;52.716;6.444;2024-03-02T13:04:26;7.15;;;5.63;;
60472;SDS011;46318;52.716;6.444;2024-03-02T13:09:23;7.60;;;4.55;;
60472;SDS011;46318;52.716;6.444;2024-03-02T13:11:49;13.23;;;11.45;;
60472;SDS011;46318;52.716;6.444;2024-03-02T13:14:15;12.77;;;11.35;;
60472;SDS011;46318;52.716;6.444;2024-03-02T13:16:44;3.53;;;2.92;;
60472;SDS011;46318;52.716;6.444;2024-03-02T13:19:12;4.45;;;4.05;;
60472;SDS011;46318;52.716;6.444;2024-03-02T13:21:38;5.10;;;4.57;;
60472;SDS011;46318;52.716;6.444;2024-03-02T13:24:04;5.20;;;4.70;;
60472;SDS011;46318;52.716;6.444;2024-03-02T13:26:31;4.25;;;3.85;;
60472;SDS011;46318;52.716;6.444;2024-03-02T13:28:56;3.70;;;3.40;;
60472;SDS011;46318;52.716;6.444;2024-03-02T13:31:22;9.57;;;8.38;;
60472;SDS011;46318;52.716;6.444;2024-03-02T13:33:49;12.90;;;10.63;;
60472;SDS011;46318;52.716;6.444;2024-03-02T13:36:15;3.30;;;2.95;;
60472;SDS011;46318;52.716;6.444;2024-03-02T13:38:42;3.63;;;3.33;;
60472;SDS011;46318;52.716;6.444;2024-03-02T13:41:08;4.03;;;3.55;;
60472;SDS011;46318;52.716;6.444;2024-03-02T13:43:33;3.65;;;3.35;;
60472;SDS011;46318;52.716;6.444;2024-03-02T13:46:01;5.10;;;4.70;;
60472;SDS011;46318;52.716;6.444;2024-03-02T13:48:27;6.00;;;5.03;;
60472;SDS011;46318;52.716;6.444;2024-03-02T13:50:53;4.25;;;3.88;;
60472;SDS011;46318;52.716;6.444;2024-03-02T13:53:19;5.05;;;3.92;;
60472;SDS011;46318;52.716;6.444;2024-03-02T13:55:45;5.20;;;3.70;;
60472;SDS011;46318;52.716;6.444;2024-03-02T13:58:11;3.92;;;3.38;;
60472;SDS011;46318;52.716;6.444;2024-03-02T14:00:37;3.35;;;3.05;;
60472;SDS011;46318;52.716;6.444;2024-03-02T14:03:04;4.88;;;3.72;;
60472;SDS011;46318;52.716;6.444;2024-03-02T14:05:33;4.25;;;3.42;;
60472;SDS011;46318;52.716;6.444;2024-03-02T14:07:59;3.22;;;2.92;;
60472;SDS011;46318;52.716;6.444;2024-03-02T14:10:25;3.38;;;3.08;;
60472;SDS011;46318;52.716;6.444;2024-03-02T14:12:53;3.67;;;3.38;;
60472;SDS011;46318;52.716;6.444;2024-03-02T14:15:20;4.00;;;3.60;;
60472;SDS011;46318;52.716;6.444;2024-03-02T14:17:47;4.95;;;3.75;;
60472;SDS011;46318;52.716;6.444;2024-03-02T14:20:13;4.80;;;4.40;;
60472;SDS011;46318;52.716;6.444;2024-03-02T14:22:39;5.75;;;5.18;;
60472;SDS011;46318;52.716;6.444;2024-03-02T14:25:05;7.78;;;5.90;;
60472;SDS011;46318;52.716;6.444;2024-03-02T14:27:31;4.90;;;4.43;;
60472;SDS011;46318;52.716;6.444;2024-03-02T14:29:57;3.60;;;3.30;;
60472;SDS011;46318;52.716;6.444;2024-03-02T14:32:26;3.30;;;3.00;;
60472;SDS011;46318;52.716;6.444;2024-03-02T14:34:52;3.20;;;2.90;;
60472;SDS011;46318;52.716;6.444;2024-03-02T14:37:18;4.63;;;4.22;;
60472;SDS011;46318;52.716;6.444;2024-03-02T14:39:43;3.67;;;3.38;;
60472;SDS011;46318;52.716;6.444;2024-03-02T14:42:09;3.17;;;2.85;;
60472;SDS011;46318;52.716;6.444;2024-03-02T14:44:35;2.53;;;2.33;;
60472;SDS011;46318;52.716;6.444;2024-03-02T14:47:01;4.63;;;3.10;;
60472;SDS011;46318;52.716;6.444;2024-03-02T14:49:29;8.55;;;7.75;;
60472;SDS011;46318;52.716;6.444;2024-03-02T14:51:55;20.98;;;18.73;;
60472;SDS011;46318;52.716;6.444;2024-03-02T14:54:21;9.70;;;8.55;;
60472;SDS011;46318;52.716;6.444;2024-03-02T14:56:47;7.03;;;6.43;;
60472;SDS011;46318;52.716;6.444;2024-03-02T14:59:14;7.40;;;6.70;;
60472;SDS011;46318;52.716;6.444;2024-03-02T15:01:40;6.75;;;5.80;;
60472;SDS011;46318;52.716;6.444;2024-03-02T15:04:06;5.35;;;4.07;;
60472;SDS011;46318;52.716;6.444;2024-03-02T15:06:32;4.40;;;3.95;;
60472;SDS011;46318;52.716;6.444;2024-03-02T15:08:58;10.60;;;9.52;;
60472;SDS011;46318;52.716;6.444;2024-03-02T15:11:23;5.13;;;4.63;;
60472;SDS011;46318;52.716;6.444;2024-03-02T15:13:50;7.43;;;6.20;;
60472;SDS011;46318;52.716;6.444;2024-03-02T15:16:16;6.30;;;5.70;;
60472;SDS011;46318;52.716;6.444;2024-03-02T15:18:42;4.35;;;3.95;;
60472;SDS011;46318;52.716;6.444;2024-03-02T15:21:08;5.07;;;4.28;;